createdAt,value
2019-06-07T00:01:29.798Z,3.90
2019-06-07T00:03:59.992Z,4.07
2019-06-07T00:06:30.491Z,4.67
2019-06-07T00:09:00.786Z,4.50
2019-06-07T00:11:31.393Z,4.07
2019-06-07T00:14:02.948Z,3.90
2019-06-07T00:16:33.019Z,3.67
2019-06-07T00:19:03.853Z,4.07
2019-06-07T00:22:13.631Z,4.40
2019-06-07T00:24:06.438Z,3.93
2019-06-07T00:26:57.035Z,4.63
2019-06-07T00:29:09.276Z,4.53
2019-06-07T00:31:40.930Z,4.60
2019-06-07T00:34:12.022Z,4.93
2019-06-07T00:36:43.363Z,4.47
2019-06-07T00:39:18.305Z,4.60
2019-06-07T00:41:46.026Z,4.47
2019-06-07T00:44:21.541Z,4.33
2019-06-07T00:46:51.603Z,4.37
2019-06-07T00:49:40.011Z,4.23
2019-06-07T00:51:54.460Z,4.07
2019-06-07T00:54:25.291Z,4.97
2019-06-07T00:56:55.749Z,4.63
2019-06-07T00:59:29.604Z,4.60
2019-06-07T01:01:58.115Z,4.30
2019-06-07T01:04:29.067Z,4.97
2019-06-07T01:06:59.636Z,4.73
2019-06-07T01:09:29.917Z,4.60
2019-06-07T01:12:01.178Z,4.77
2019-06-07T01:14:31.743Z,4.83
2019-06-07T01:17:26.532Z,4.97
2019-06-07T01:19:44.953Z,4.90
2019-06-07T01:22:18.397Z,4.70
2019-06-07T01:24:50.089Z,4.50
2019-06-07T01:27:23.504Z,4.67
2019-06-07T01:29:52.574Z,4.50
2019-06-07T01:32:24.688Z,4.60
2019-06-07T01:34:55.156Z,4.67
2019-06-07T01:37:27.867Z,4.30
2019-06-07T01:39:57.298Z,4.67
2019-06-07T01:42:29.431Z,4.67
2019-06-07T01:44:59.672Z,4.60
2019-06-07T01:47:32.173Z,4.93
2019-06-07T01:50:02.368Z,4.67
2019-06-07T01:52:32.868Z,4.97
2019-06-07T01:55:03.519Z,4.83
2019-06-07T01:57:45.738Z,5.07
2019-06-07T02:00:06.711Z,4.97
2019-06-07T02:02:39.210Z,5.10
2019-06-07T02:05:09.853Z,4.93
2019-06-07T02:07:40.412Z,5.27
2019-06-07T02:10:11.727Z,4.90
2019-06-07T02:12:43.627Z,4.50
2019-06-07T02:15:14.338Z,4.70
2019-06-07T02:17:44.649Z,4.90
2019-06-07T02:20:15.108Z,5.00
2019-06-07T02:22:46.002Z,5.43
2019-06-07T02:25:37.346Z,5.47
2019-06-07T02:27:49.712Z,5.30
2019-06-07T02:30:40.306Z,4.53
2019-06-07T02:32:53.595Z,5.20
2019-06-07T02:35:30.929Z,5.00
2019-06-07T02:37:55.849Z,4.97
2019-06-07T02:40:28.061Z,4.30
2019-06-07T02:42:58.660Z,5.53
2019-06-07T02:45:42.043Z,4.90
2019-06-07T02:48:03.880Z,5.40
2019-06-07T02:50:40.954Z,4.50
2019-06-07T02:53:11.438Z,4.83
2019-06-07T02:56:33.799Z,4.97
2019-06-07T02:58:16.896Z,5.33
2019-06-07T03:01:09.037Z,5.30
2019-06-07T03:03:24.497Z,5.03
2019-06-07T03:05:55.719Z,5.13
2019-06-07T03:08:30.958Z,5.10
2019-06-07T03:11:03.353Z,4.77
2019-06-07T03:13:37.579Z,5.10
2019-06-07T03:16:12.993Z,5.17
2019-06-07T03:19:17.633Z,5.20
2019-06-07T03:21:48.003Z,5.10
2019-06-07T03:24:18.135Z,5.97
2019-06-07T03:29:21.615Z,5.77
2019-06-07T03:31:51.705Z,5.40
2019-06-07T03:34:22.596Z,6.17
2019-06-07T03:36:52.804Z,5.30
2019-06-07T03:39:23.297Z,5.53
2019-06-07T03:42:06.326Z,5.40
2019-06-07T03:44:32.160Z,5.47
2019-06-07T03:47:00.276Z,5.67
2019-06-07T03:49:36.467Z,5.70
2019-06-07T03:52:05.074Z,6.13
2019-06-07T03:54:38.431Z,5.20
2019-06-07T03:57:07.473Z,5.23
2019-06-07T03:59:43.836Z,5.13
2019-06-07T04:02:14.639Z,5.33
2019-06-07T04:04:44.872Z,5.77
2019-06-07T04:07:15.095Z,5.50
2019-06-07T04:09:49.102Z,6.10
2019-06-07T04:12:19.477Z,6.27
2019-06-07T04:14:49.554Z,6.40
2019-06-07T04:17:20.014Z,5.93
2019-06-07T04:19:50.217Z,5.90
2019-06-07T04:22:20.323Z,5.60
2019-06-07T04:24:59.524Z,6.13
2019-06-07T04:27:30.829Z,6.03
2019-06-07T04:30:07.371Z,6.43
2019-06-07T04:32:36.296Z,5.70
2019-06-07T04:35:07.443Z,5.90
2019-06-07T04:37:41.491Z,5.60
2019-06-07T04:40:11.340Z,5.70
2019-06-07T04:42:45.164Z,5.93
2019-06-07T04:45:32.981Z,5.37
2019-06-07T04:47:49.713Z,5.50
2019-06-07T04:50:20.773Z,4.60
2019-06-07T04:52:51.020Z,4.60
2019-06-07T04:55:21.292Z,4.80
2019-06-07T04:57:52.530Z,5.03
2019-06-07T05:00:49.862Z,4.70
2019-06-07T05:03:06.982Z,4.70
2019-06-07T05:05:41.383Z,4.63
2019-06-07T05:08:27.003Z,4.83
2019-06-07T05:10:43.910Z,4.60
2019-06-07T05:13:13.713Z,4.40
2019-06-07T05:15:44.359Z,4.30
2019-06-07T05:18:14.584Z,4.57
2019-06-07T05:20:47.386Z,3.67
2019-06-07T05:23:59.226Z,4.20
2019-06-07T05:25:49.428Z,4.67
2019-06-07T05:28:21.054Z,4.23
2019-06-07T05:31:03.898Z,4.13
2019-06-07T05:33:23.438Z,4.03
2019-06-07T05:35:56.798Z,4.10
2019-06-07T05:38:27.501Z,4.20
2019-06-07T05:40:58.127Z,4.70
2019-06-07T05:43:35.129Z,5.03
2019-06-07T05:46:03.707Z,4.90
2019-06-07T05:48:36.520Z,4.37
2019-06-07T05:51:07.062Z,4.67
2019-06-07T05:53:38.980Z,5.10
2019-06-07T05:56:10.563Z,4.40
2019-06-07T05:58:42.817Z,4.83
2019-06-07T06:01:42.131Z,5.00
2019-06-07T06:03:48.003Z,4.33
2019-06-07T06:06:22.513Z,4.93
2019-06-07T06:09:10.980Z,4.70
2019-06-07T06:11:43.429Z,4.63
2019-06-07T06:14:07.638Z,4.37
2019-06-07T06:16:34.877Z,5.07
2019-06-07T06:19:05.194Z,5.03
2019-06-07T06:21:38.521Z,4.80
2019-06-07T06:24:09.365Z,5.13
2019-06-07T06:26:46.251Z,4.63
2019-06-07T06:29:13.377Z,4.80
2019-06-07T06:32:35.810Z,3.87
2019-06-07T06:34:15.963Z,4.93
2019-06-07T06:36:49.737Z,4.40
2019-06-07T06:39:31.725Z,4.40
2019-06-07T06:42:04.577Z,4.33
2019-06-07T06:44:41.820Z,4.60
2019-06-07T06:47:19.353Z,4.37
2019-06-07T06:49:53.973Z,4.20
2019-06-07T06:52:30.741Z,3.87
2019-06-07T06:55:02.227Z,4.00
2019-06-07T06:57:32.863Z,4.00
2019-06-07T07:00:06.502Z,3.73
2019-06-07T07:03:27.012Z,3.97
2019-06-07T07:05:09.509Z,3.57
2019-06-07T07:07:42.922Z,3.90
2019-06-07T07:10:13.758Z,3.30
2019-06-07T07:12:45.491Z,3.70
2019-06-07T07:15:18.142Z,3.70
2019-06-07T07:18:00.494Z,3.47
2019-06-07T07:20:20.135Z,4.27
2019-06-07T07:22:54.238Z,4.30
2019-06-07T07:25:28.563Z,4.20
2019-06-07T07:28:01.713Z,5.07
2019-06-07T07:30:44.910Z,4.47
2019-06-07T07:33:18.135Z,5.13
2019-06-07T07:36:14.042Z,5.67
2019-06-07T07:38:20.318Z,5.70
2019-06-07T07:41:07.456Z,6.00
2019-06-07T07:43:25.587Z,5.73
2019-06-07T07:46:02.223Z,6.40
2019-06-07T07:48:28.463Z,6.20
2019-06-07T07:51:09.639Z,6.40
2019-06-07T07:53:51.280Z,5.73
2019-06-07T07:56:11.880Z,5.83
2019-06-07T07:58:51.139Z,6.30
2019-06-07T08:01:20.795Z,5.40
2019-06-07T08:03:54.918Z,4.80
2019-06-07T08:06:27.569Z,4.73
2019-06-07T08:08:59.009Z,4.57
2019-06-07T08:11:29.606Z,4.50
2019-06-07T08:14:03.360Z,4.73
2019-06-07T08:16:33.905Z,4.50
2019-06-07T08:19:04.718Z,4.27
2019-06-07T08:21:38.680Z,4.13
2019-06-07T08:24:14.899Z,3.93
2019-06-07T08:27:07.829Z,3.90
2019-06-07T08:29:17.521Z,3.80
2019-06-07T08:32:00.957Z,4.37
2019-06-07T08:34:41.641Z,4.57
2019-06-07T08:37:12.373Z,4.77
2019-06-07T08:39:42.604Z,4.50
2019-06-07T08:42:21.123Z,3.93
2019-06-07T08:44:47.831Z,4.70
2019-06-07T08:47:20.989Z,3.80
2019-06-07T08:49:56.208Z,4.20
2019-06-07T08:52:24.954Z,4.90
2019-06-07T08:55:10.465Z,4.10
2019-06-07T08:57:46.794Z,3.97
2019-06-07T09:02:53.186Z,4.13
2019-06-07T09:05:25.731Z,4.53
2019-06-07T09:08:21.684Z,4.50
2019-06-07T09:10:34.554Z,5.00
2019-06-07T09:13:11.151Z,5.07
2019-06-07T09:15:37.710Z,4.63
2019-06-07T09:20:46.119Z,4.47
2019-06-07T09:23:18.064Z,4.20
2019-06-07T09:26:00.821Z,4.17
2019-06-07T09:28:32.537Z,4.03
2019-06-07T09:31:09.856Z,3.97
2019-06-07T09:33:47.015Z,3.80
2019-06-07T09:36:17.536Z,4.00
2019-06-07T09:38:51.465Z,3.77
2019-06-07T09:41:22.200Z,3.43
2019-06-07T09:44:05.484Z,4.00
2019-06-07T09:46:28.889Z,4.70
2019-06-07T09:49:18.788Z,4.53
2019-06-07T09:51:34.757Z,3.20
2019-06-07T09:54:11.520Z,4.80
2019-06-07T09:56:41.384Z,4.03
2019-06-07T09:59:16.664Z,3.23
2019-06-07T10:01:46.785Z,3.40
2019-06-07T10:04:30.612Z,2.93
2019-06-07T10:06:52.437Z,3.00
2019-06-07T10:10:08.624Z,2.50
2019-06-07T10:11:56.328Z,3.03
2019-06-07T10:14:32.380Z,2.50
2019-06-07T10:17:03.208Z,2.83
2019-06-07T10:19:33.629Z,2.43
2019-06-07T10:22:13.749Z,2.57
2019-06-07T10:24:48.799Z,2.17
2019-06-07T10:27:22.233Z,2.07
2019-06-07T10:30:02.325Z,2.33
2019-06-07T10:32:32.350Z,2.20
2019-06-07T10:35:03.311Z,2.90
2019-06-07T10:37:35.056Z,2.10
2019-06-07T10:40:09.107Z,2.10
2019-06-07T10:42:42.493Z,2.30
2019-06-07T10:45:13.776Z,2.17
2019-06-07T10:47:47.334Z,2.50
2019-06-07T10:50:19.526Z,2.17
2019-06-07T10:52:49.970Z,2.30
2019-06-07T10:55:26.379Z,2.03
2019-06-07T10:57:56.517Z,2.30
2019-06-07T11:00:28.890Z,1.97
2019-06-07T11:03:01.249Z,2.03
2019-06-07T11:05:32.336Z,2.10
2019-06-07T11:08:04.162Z,2.13
2019-06-07T11:10:34.888Z,2.00
2019-06-07T11:13:06.074Z,2.07
2019-06-07T11:15:39.062Z,2.10
2019-06-07T11:18:30.455Z,2.10
2019-06-07T11:21:00.724Z,2.30
2019-06-07T11:23:37.525Z,2.40
2019-06-07T11:26:12.477Z,2.13
2019-06-07T11:28:43.150Z,2.07
2019-06-07T11:31:15.163Z,2.00
2019-06-07T11:33:49.285Z,2.30
2019-06-07T11:36:22.468Z,2.20
2019-06-07T11:38:53.199Z,1.90
2019-06-07T11:41:23.389Z,1.80
2019-06-07T11:44:13.106Z,2.20
2019-06-07T11:46:46.501Z,1.80
2019-06-07T11:49:20.435Z,2.07
2019-06-07T11:51:53.695Z,2.00
2019-06-07T11:54:29.149Z,1.97
2019-06-07T11:56:59.938Z,1.90
2019-06-07T11:59:35.852Z,1.80
2019-06-07T12:02:29.557Z,1.70
2019-06-07T12:05:00.063Z,1.80
2019-06-07T12:07:34.291Z,1.80
2019-06-07T12:10:39.525Z,2.10
2019-06-07T12:13:03.450Z,1.90
2019-06-07T12:15:37.511Z,2.00
2019-06-07T12:18:13.138Z,1.97
2019-06-07T12:20:44.441Z,1.90
2019-06-07T12:23:16.031Z,1.70
2019-06-07T12:25:49.210Z,2.10
2019-06-07T12:28:24.575Z,2.00
2019-06-07T12:30:55.470Z,1.60
2019-06-07T12:33:29.845Z,1.80
2019-06-07T12:36:00.696Z,2.00
2019-06-07T12:38:35.235Z,1.80
2019-06-07T12:41:14.751Z,1.70
2019-06-07T12:43:58.978Z,2.05
2019-06-07T12:46:28.670Z,1.83
2019-06-07T12:49:03.031Z,2.10
2019-06-07T12:51:38.077Z,2.03
2019-06-07T12:54:10.357Z,1.82
2019-06-07T12:56:44.003Z,1.83
2019-06-07T12:59:15.959Z,1.60
2019-06-07T13:01:48.254Z,1.93
2019-06-07T13:04:20.471Z,1.75
2019-06-07T13:06:51.556Z,1.70
2019-06-07T13:09:22.207Z,1.60
2019-06-07T13:11:53.048Z,1.72
2019-06-07T13:14:24.209Z,1.80
2019-06-07T13:16:59.033Z,1.70
2019-06-07T13:19:32.241Z,1.57
2019-06-07T13:22:18.500Z,1.52
2019-06-07T13:24:48.942Z,1.50
2019-06-07T13:27:20.380Z,1.57
2019-06-07T13:29:51.156Z,1.98
2019-06-07T13:32:21.673Z,1.30
2019-06-07T13:35:00.128Z,2.02
2019-06-07T13:37:33.726Z,1.47
2019-06-07T13:40:11.679Z,1.47
2019-06-07T13:42:42.030Z,1.22
2019-06-07T13:45:15.137Z,2.00
2019-06-07T13:47:54.981Z,1.80
2019-06-07T13:50:32.917Z,1.47
2019-06-07T13:53:05.869Z,1.40
2019-06-07T13:55:39.435Z,1.87
2019-06-07T13:58:13.254Z,1.92
2019-06-07T14:00:44.409Z,1.32
2019-06-07T14:03:14.602Z,1.57
2019-06-07T14:05:46.979Z,1.55
2019-06-07T14:08:27.316Z,1.80
2019-06-07T14:10:58.074Z,1.40
2019-06-07T14:13:34.062Z,1.47
2019-06-07T14:16:10.290Z,1.50
2019-06-07T14:18:47.628Z,1.40
2019-06-07T14:21:18.877Z,1.40
2019-06-07T14:23:49.574Z,1.52
2019-06-07T14:26:27.305Z,1.50
2019-06-07T14:31:50.315Z,1.70
2019-06-07T14:34:30.489Z,1.40
2019-06-07T14:37:01.460Z,1.40
2019-06-07T14:39:33.419Z,1.55
2019-06-07T14:42:09.889Z,1.67
2019-06-07T14:44:42.563Z,2.00
2019-06-07T14:47:20.141Z,1.40
2019-06-07T14:49:55.216Z,1.55
2019-06-07T14:52:35.118Z,1.40
2019-06-07T14:55:06.409Z,1.30
2019-06-07T14:57:43.745Z,1.40
2019-06-07T15:00:16.437Z,1.70
2019-06-07T15:02:46.635Z,1.47
2019-06-07T15:05:28.681Z,1.95
2019-06-07T15:07:58.856Z,1.50
2019-06-07T15:10:35.294Z,1.87
2019-06-07T15:13:07.100Z,1.50
2019-06-07T15:15:38.985Z,1.55
2019-06-07T15:18:10.049Z,1.90
2019-06-07T15:21:04.422Z,1.45
2019-06-07T15:23:40.375Z,1.75
2019-06-07T15:26:12.823Z,1.57
2019-06-07T15:28:46.450Z,1.52
2019-06-07T15:31:18.596Z,1.40
2019-06-07T15:33:49.671Z,1.45
2019-06-07T15:36:19.975Z,1.55
2019-06-07T15:38:50.984Z,1.77
2019-06-07T15:41:32.981Z,1.47
2019-06-07T15:44:21.691Z,1.47
2019-06-07T15:46:53.754Z,1.50
2019-06-07T15:49:36.222Z,1.50
2019-06-07T15:52:10.738Z,1.62
2019-06-07T15:54:46.424Z,1.70
2019-06-07T15:57:42.396Z,1.90
2019-06-07T16:00:14.153Z,2.00
2019-06-07T16:02:45.486Z,1.80
2019-06-07T16:05:19.428Z,1.87
2019-06-07T16:07:56.432Z,2.20
2019-06-07T16:10:29.604Z,2.33
2019-06-07T16:13:00.993Z,2.25
2019-06-07T16:15:37.023Z,2.08
2019-06-07T16:18:08.546Z,2.15
2019-06-07T16:20:39.933Z,1.87
2019-06-07T16:23:10.931Z,2.75
2019-06-07T16:25:42.163Z,2.30
2019-06-07T16:28:19.913Z,2.60
2019-06-07T16:30:57.541Z,3.63
2019-06-07T16:33:28.506Z,3.23
2019-06-07T16:36:03.909Z,3.87
2019-06-07T16:38:36.701Z,4.03
2019-06-07T16:41:09.952Z,4.37
2019-06-07T16:43:46.499Z,3.67
2019-06-07T16:46:23.319Z,4.40
2019-06-07T16:48:57.228Z,3.57
2019-06-07T16:51:27.643Z,3.37
2019-06-07T16:54:07.644Z,3.57
2019-06-07T16:56:45.404Z,4.00
2019-06-07T16:59:13.693Z,4.27
2019-06-07T17:01:49.551Z,3.50
2019-06-07T17:04:28.475Z,3.50
2019-06-07T17:07:29.885Z,3.60
2019-06-07T17:09:31.026Z,3.33
2019-06-07T17:12:01.763Z,2.67
2019-06-07T17:14:38.348Z,2.00
2019-06-07T17:17:19.555Z,1.40
2019-06-07T17:19:50.228Z,1.33
2019-06-07T17:22:22.525Z,1.10
2019-06-07T17:24:53.963Z,1.27
2019-06-07T17:27:32.989Z,1.63
2019-06-07T17:30:15.631Z,1.13
2019-06-07T17:33:01.126Z,1.03
2019-06-07T17:35:34.415Z,1.30
2019-06-07T17:38:07.740Z,1.30
2019-06-07T17:40:44.949Z,1.30
2019-06-07T17:43:25.751Z,1.07
2019-06-07T17:46:02.883Z,1.10
2019-06-07T17:48:34.774Z,0.80
2019-06-07T17:51:08.404Z,0.90
2019-06-07T17:53:41.747Z,1.07
2019-06-07T17:56:12.564Z,1.40
2019-06-07T17:58:44.571Z,1.40
2019-06-07T18:01:18.659Z,1.40
2019-06-07T18:03:58.715Z,1.47
2019-06-07T18:06:31.136Z,0.93
2019-06-07T18:09:08.773Z,1.00
2019-06-07T18:11:43.946Z,0.67
2019-06-07T18:14:19.264Z,0.63
2019-06-07T18:16:57.830Z,0.70
2019-06-07T18:19:32.699Z,0.70
2019-06-07T18:22:06.420Z,0.77
2019-06-07T18:24:54.681Z,0.93
2019-06-07T18:27:26.244Z,0.80
2019-06-07T18:29:59.740Z,0.70
2019-06-07T18:32:30.807Z,0.70
2019-06-07T18:35:01.494Z,0.70
2019-06-07T18:37:38.110Z,0.67
2019-06-07T18:40:10.492Z,0.60
2019-06-07T18:42:45.017Z,0.80
2019-06-07T18:45:16.265Z,0.40
2019-06-07T18:47:51.418Z,0.60
2019-06-07T18:50:24.495Z,0.60
2019-06-07T18:53:08.036Z,0.53
2019-06-07T18:55:40.095Z,0.70
2019-06-07T18:58:15.681Z,0.60
2019-06-07T19:00:49.721Z,0.43
2019-06-07T19:03:33.629Z,0.70
2019-06-07T19:06:07.984Z,0.73
2019-06-07T19:08:46.186Z,0.80
2019-06-07T19:11:17.327Z,0.70
2019-06-07T19:13:52.950Z,0.60
2019-06-07T19:16:23.875Z,0.73
2019-06-07T19:19:08.509Z,0.60
2019-06-07T19:21:52.044Z,0.73
2019-06-07T19:24:48.173Z,0.63
2019-06-07T19:27:20.371Z,0.80
2019-06-07T19:29:52.662Z,0.73
2019-06-07T19:32:35.327Z,0.80
2019-06-07T19:35:11.458Z,0.70
2019-06-07T19:37:55.862Z,0.80
2019-06-07T19:40:32.532Z,0.50
2019-06-07T19:43:06.748Z,0.47
2019-06-07T19:45:54.418Z,0.67
2019-06-07T19:48:30.585Z,0.70
2019-06-07T19:51:15.262Z,0.60
2019-06-07T19:53:43.624Z,0.70
2019-06-07T19:56:14.572Z,0.77
2019-06-07T19:59:13.606Z,0.70
2019-06-07T20:01:44.610Z,0.80
2019-06-07T20:04:15.323Z,1.00
2019-06-07T20:06:49.355Z,0.83
2019-06-07T20:09:23.376Z,0.77
2019-06-07T20:11:54.715Z,0.60
2019-06-07T20:14:25.431Z,0.70
2019-06-07T20:16:59.446Z,0.80
2019-06-07T20:19:35.995Z,0.70
2019-06-07T20:22:09.582Z,0.67
2019-06-07T20:24:48.395Z,0.57
2019-06-07T20:27:21.858Z,0.50
2019-06-07T20:29:52.390Z,0.60
2019-06-07T20:32:25.079Z,0.50
2019-06-07T20:35:01.665Z,0.60
2019-06-07T20:37:33.861Z,0.67
2019-06-07T20:40:22.418Z,0.60
2019-06-07T20:42:50.558Z,0.80
2019-06-07T20:45:33.609Z,0.50
2019-06-07T20:48:08.486Z,0.63
2019-06-07T20:50:42.977Z,0.60
2019-06-07T20:53:14.371Z,0.50
2019-06-07T20:55:52.726Z,0.60
2019-06-07T20:58:32.234Z,0.50
2019-06-07T21:01:09.015Z,1.00
2019-06-07T21:03:43.861Z,0.80
2019-06-07T21:06:30.451Z,0.77
2019-06-07T21:09:01.615Z,0.80
2019-06-07T21:11:42.870Z,0.60
2019-06-07T21:14:16.252Z,0.87
2019-06-07T21:16:55.701Z,1.00
2019-06-07T21:19:27.081Z,0.80
2019-06-07T21:22:02.801Z,0.83
2019-06-07T21:24:33.750Z,0.50
2019-06-07T21:27:07.385Z,0.80
2019-06-07T21:29:38.524Z,1.10
2019-06-07T21:32:11.801Z,0.70
2019-06-07T21:34:42.369Z,1.00
2019-06-07T21:37:13.906Z,0.77
2019-06-07T21:40:08.230Z,0.70
2019-06-07T21:42:44.306Z,0.60
2019-06-07T21:45:27.401Z,0.80
2019-06-07T21:48:16.158Z,0.80
2019-06-07T21:51:20.942Z,0.93
2019-06-07T21:54:40.810Z,0.70
2019-06-07T21:57:14.053Z,0.80
2019-06-07T21:59:54.351Z,0.90
2019-06-07T22:02:46.588Z,0.57
2019-06-07T22:05:28.691Z,0.63
2019-06-07T22:08:03.758Z,0.80
2019-06-07T22:10:46.068Z,0.73
2019-06-07T22:13:20.710Z,0.83
2019-06-07T22:16:26.170Z,1.00
2019-06-07T22:18:56.185Z,0.70
2019-06-07T22:21:30.875Z,0.67
2019-06-07T22:24:02.844Z,0.60
2019-06-07T22:26:55.356Z,0.60
2019-06-07T22:29:53.623Z,0.60
2019-06-07T22:32:26.364Z,0.60
2019-06-07T22:35:07.165Z,0.60
2019-06-07T22:37:43.501Z,0.40
2019-06-07T22:40:22.908Z,0.70
2019-06-07T22:43:20.698Z,0.87
2019-06-07T22:45:54.045Z,0.83
2019-06-07T22:48:28.837Z,0.77
2019-06-07T22:51:14.507Z,0.73
2019-06-07T22:53:56.271Z,0.70
2019-06-07T22:57:05.031Z,0.67
2019-06-07T23:00:08.593Z,0.70
2019-06-07T23:02:47.413Z,0.57
2019-06-07T23:05:30.066Z,0.60
2019-06-07T23:08:25.999Z,0.80
2019-06-07T23:11:09.036Z,0.63
2019-06-07T23:13:41.756Z,0.60
2019-06-07T23:16:21.137Z,0.73
2019-06-07T23:19:02.940Z,0.53
2019-06-07T23:21:48.184Z,0.50
2019-06-07T23:24:21.508Z,0.70
2019-06-07T23:26:58.804Z,0.50
2019-06-07T23:29:33.650Z,0.57
2019-06-07T23:32:03.914Z,0.50
2019-06-07T23:34:38.688Z,0.50
2019-06-07T23:37:09.346Z,0.50
2019-06-07T23:39:59.096Z,0.80
2019-06-07T23:42:34.541Z,0.50
2019-06-07T23:45:12.451Z,0.70
2019-06-07T23:47:54.997Z,0.70
2019-06-07T23:50:32.795Z,0.80
2019-06-07T23:53:07.203Z,0.70
2019-06-07T23:55:42.011Z,0.53
2019-06-07T23:58:23.284Z,0.60
